sensor_id;sensor_type;location;lat;lon;timestamp;temperature;humidity
4429;DHT22;2227;47.810;8.810;2023-07-31T03:48:39;12.60;99.90
4429;DHT22;2227;47.810;8.810;2023-07-31T03:51:05;12.60;99.90
4429;DHT22;2227;47.810;8.810;2023-07-31T03:53:32;12.60;99.90
4429;DHT22;2227;47.810;8.810;2023-07-31T03:55:59;12.70;99.90
4429;DHT22;2227;47.810;8.810;2023-07-31T04:01:03;12.50;99.90
4429;DHT22;2227;47.810;8.810;2023-07-31T04:03:30;12.50;99.90
4429;DHT22;2227;47.810;8.810;2023-07-31T04:05:57;12.50;99.90
4429;DHT22;2227;47.810;8.810;2023-07-31T04:08:24;12.50;99.90
4429;DHT22;2227;47.810;8.810;2023-07-31T04:10:51;12.50;99.90
4429;DHT22;2227;47.810;8.810;2023-07-31T04:13:17;12.60;99.90
4429;DHT22;2227;47.810;8.810;2023-07-31T04:15:48;12.60;99.90
4429;DHT22;2227;47.810;8.810;2023-07-31T04:18:16;12.70;99.90
4429;DHT22;2227;47.810;8.810;2023-07-31T04:20:43;12.80;99.90
4429;DHT22;2227;47.810;8.810;2023-07-31T04:23:10;12.80;99.90
4429;DHT22;2227;47.810;8.810;2023-07-31T04:25:36;12.90;99.90
4429;DHT22;2227;47.810;8.810;2023-07-31T04:28:03;13.00;99.90
4429;DHT22;2227;47.810;8.810;2023-07-31T04:30:30;12.90;99.90
4429;DHT22;2227;47.810;8.810;2023-07-31T04:32:57;12.90;99.90
4429;DHT22;2227;47.810;8.810;2023-07-31T04:35:24;12.90;99.90
4429;DHT22;2227;47.810;8.810;2023-07-31T04:37:50;13.00;99.90
4429;DHT22;2227;47.810;8.810;2023-07-31T04:40:17;13.00;99.90
4429;DHT22;2227;47.810;8.810;2023-07-31T04:42:44;13.00;99.90
4429;DHT22;2227;47.810;8.810;2023-07-31T04:45:10;13.00;99.90
4429;DHT22;2227;47.810;8.810;2023-07-31T04:47:37;12.80;99.90
4429;DHT22;2227;47.810;8.810;2023-07-31T04:50:04;12.80;99.90
4429;DHT22;2227;47.810;8.810;2023-07-31T04:52:31;13.00;99.90
4429;DHT22;2227;47.810;8.810;2023-07-31T04:54:58;13.00;99.90
4429;DHT22;2227;47.810;8.810;2023-07-31T04:57:25;13.10;99.90
4429;DHT22;2227;47.810;8.810;2023-07-31T04:59:51;13.20;99.90
4429;DHT22;2227;47.810;8.810;2023-07-31T05:02:18;13.20;99.90
4429;DHT22;2227;47.810;8.810;2023-07-31T05:04:45;13.30;99.90
4429;DHT22;2227;47.810;8.810;2023-07-31T05:07:11;13.30;99.90
4429;DHT22;2227;47.810;8.810;2023-07-31T05:09:38;13.30;99.90
4429;DHT22;2227;47.810;8.810;2023-07-31T05:12:06;13.40;99.90
4429;DHT22;2227;47.810;8.810;2023-07-31T05:14:32;13.50;99.90
4429;DHT22;2227;47.810;8.810;2023-07-31T05:16:59;13.50;99.90
4429;DHT22;2227;47.810;8.810;2023-07-31T05:19:26;13.60;99.90
4429;DHT22;2227;47.810;8.810;2023-07-31T05:21:52;13.70;99.90
4429;DHT22;2227;47.810;8.810;2023-07-31T05:24:19;13.80;99.90
4429;DHT22;2227;47.810;8.810;2023-07-31T05:26:46;13.90;99.90
4429;DHT22;2227;47.810;8.810;2023-07-31T05:29:13;14.00;99.90
4429;DHT22;2227;47.810;8.810;2023-07-31T05:31:39;14.00;99.90
4429;DHT22;2227;47.810;8.810;2023-07-31T05:34:06;14.00;99.90
4429;DHT22;2227;47.810;8.810;2023-07-31T05:36:33;14.10;99.90
4429;DHT22;2227;47.810;8.810;2023-07-31T05:38:59;14.10;99.90
4429;DHT22;2227;47.810;8.810;2023-07-31T05:41:26;14.20;99.90
4429;DHT22;2227;47.810;8.810;2023-07-31T05:43:53;14.30;99.90
4429;DHT22;2227;47.810;8.810;2023-07-31T05:46:19;14.40;99.90
4429;DHT22;2227;47.810;8.810;2023-07-31T05:48:46;14.40;99.90
4429;DHT22;2227;47.810;8.810;2023-07-31T05:51:13;14.50;99.90
4429;DHT22;2227;47.810;8.810;2023-07-31T05:53:40;14.50;99.90
4429;DHT22;2227;47.810;8.810;2023-07-31T05:56:07;14.60;99.90
4429;DHT22;2227;47.810;8.810;2023-07-31T05:58:34;14.60;99.90
4429;DHT22;2227;47.810;8.810;2023-07-31T06:01:01;14.70;99.90
4429;DHT22;2227;47.810;8.810;2023-07-31T06:03:28;14.70;99.90
4429;DHT22;2227;47.810;8.810;2023-07-31T06:05:54;14.80;99.90
4429;DHT22;2227;47.810;8.810;2023-07-31T06:08:21;14.90;99.90
4429;DHT22;2227;47.810;8.810;2023-07-31T06:10:48;15.00;99.90
4429;DHT22;2227;47.810;8.810;2023-07-31T06:13:15;15.10;99.90
4429;DHT22;2227;47.810;8.810;2023-07-31T06:15:41;15.20;99.90
4429;DHT22;2227;47.810;8.810;2023-07-31T06:18:08;15.30;99.90
4429;DHT22;2227;47.810;8.810;2023-07-31T06:20:35;15.40;99.90
4429;DHT22;2227;47.810;8.810;2023-07-31T06:23:02;15.40;99.90
4429;DHT22;2227;47.810;8.810;2023-07-31T06:25:30;15.50;99.90
4429;DHT22;2227;47.810;8.810;2023-07-31T06:27:57;15.50;99.90
4429;DHT22;2227;47.810;8.810;2023-07-31T06:30:23;15.60;99.90
4429;DHT22;2227;47.810;8.810;2023-07-31T06:32:50;15.70;99.90
4429;DHT22;2227;47.810;8.810;2023-07-31T06:35:17;15.80;99.90
4429;DHT22;2227;47.810;8.810;2023-07-31T06:37:44;15.80;99.90
4429;DHT22;2227;47.810;8.810;2023-07-31T06:40:11;15.90;99.90
4429;DHT22;2227;47.810;8.810;2023-07-31T06:42:38;15.90;99.90
4429;DHT22;2227;47.810;8.810;2023-07-31T06:45:05;16.00;99.90
4429;DHT22;2227;47.810;8.810;2023-07-31T06:47:32;16.10;99.90
4429;DHT22;2227;47.810;8.810;2023-07-31T06:49:59;16.20;99.90
4429;DHT22;2227;47.810;8.810;2023-07-31T06:52:26;16.30;99.90
4429;DHT22;2227;47.810;8.810;2023-07-31T06:55:02;16.50;99.90
4429;DHT22;2227;47.810;8.810;2023-07-31T06:57:30;16.70;99.90
4429;DHT22;2227;47.810;8.810;2023-07-31T06:59:57;16.80;99.90
4429;DHT22;2227;47.810;8.810;2023-07-31T07:02:23;16.90;99.90
4429;DHT22;2227;47.810;8.810;2023-07-31T07:04:50;17.10;99.90
4429;DHT22;2227;47.810;8.810;2023-07-31T07:07:17;17.30;99.90
4429;DHT22;2227;47.810;8.810;2023-07-31T07:09:44;17.40;99.90
4429;DHT22;2227;47.810;8.810;2023-07-31T07:12:11;17.50;99.90
4429;DHT22;2227;47.810;8.810;2023-07-31T07:14:38;17.50;99.90
4429;DHT22;2227;47.810;8.810;2023-07-31T07:17:04;17.60;99.90
4429;DHT22;2227;47.810;8.810;2023-07-31T07:19:31;17.60;99.90
4429;DHT22;2227;47.810;8.810;2023-07-31T07:21:58;17.60;99.90
4429;DHT22;2227;47.810;8.810;2023-07-31T07:24:28;17.70;99.90
4429;DHT22;2227;47.810;8.810;2023-07-31T07:26:55;17.70;99.90
4429;DHT22;2227;47.810;8.810;2023-07-31T07:29:21;17.80;99.90
4429;DHT22;2227;47.810;8.810;2023-07-31T07:31:48;17.90;99.90
4429;DHT22;2227;47.810;8.810;2023-07-31T07:34:15;18.10;99.90
4429;DHT22;2227;47.810;8.810;2023-07-31T07:36:41;18.20;99.90
4429;DHT22;2227;47.810;8.810;2023-07-31T07:39:10;18.10;99.90
4429;DHT22;2227;47.810;8.810;2023-07-31T07:41:37;18.00;99.90
4429;DHT22;2227;47.810;8.810;2023-07-31T07:44:04;17.90;99.90
4429;DHT22;2227;47.810;8.810;2023-07-31T07:46:31;17.90;99.90
4429;DHT22;2227;47.810;8.810;2023-07-31T07:48:58;18.00;99.90
4429;DHT22;2227;47.810;8.810;2023-07-31T07:51:24;18.00;99.90
4429;DHT22;2227;47.810;8.810;2023-07-31T07:53:51;18.20;99.90
4429;DHT22;2227;47.810;8.810;2023-07-31T07:56:18;18.40;99.90
4429;DHT22;2227;47.810;8.810;2023-07-31T07:58:44;18.40;99.90
4429;DHT22;2227;47.810;8.810;2023-07-31T08:01:14;18.40;99.90
4429;DHT22;2227;47.810;8.810;2023-07-31T08:03:41;18.40;99.90
4429;DHT22;2227;47.810;8.810;2023-07-31T08:06:08;18.50;99.90
4429;DHT22;2227;47.810;8.810;2023-07-31T08:08:36;18.70;99.90
4429;DHT22;2227;47.810;8.810;2023-07-31T08:11:03;18.70;99.90
4429;DHT22;2227;47.810;8.810;2023-07-31T08:13:30;18.80;99.90
4429;DHT22;2227;47.810;8.810;2023-07-31T08:15:57;18.80;99.90
4429;DHT22;2227;47.810;8.810;2023-07-31T08:18:24;18.90;99.90
4429;DHT22;2227;47.810;8.810;2023-07-31T08:20:51;18.90;99.90
4429;DHT22;2227;47.810;8.810;2023-07-31T08:23:17;19.10;99.90
4429;DHT22;2227;47.810;8.810;2023-07-31T08:25:45;19.20;99.90
4429;DHT22;2227;47.810;8.810;2023-07-31T08:28:12;19.20;99.90
4429;DHT22;2227;47.810;8.810;2023-07-31T08:30:38;19.20;99.90
4429;DHT22;2227;47.810;8.810;2023-07-31T08:33:05;19.50;99.90
4429;DHT22;2227;47.810;8.810;2023-07-31T08:35:32;19.90;99.90
4429;DHT22;2227;47.810;8.810;2023-07-31T08:37:59;20.00;99.90
4429;DHT22;2227;47.810;8.810;2023-07-31T08:40:26;20.00;99.90
4429;DHT22;2227;47.810;8.810;2023-07-31T08:42:55;20.00;99.90
4429;DHT22;2227;47.810;8.810;2023-07-31T08:45:28;19.80;99.90
4429;DHT22;2227;47.810;8.810;2023-07-31T08:47:56;19.80;99.90
4429;DHT22;2227;47.810;8.810;2023-07-31T08:50:24;19.80;99.90
4429;DHT22;2227;47.810;8.810;2023-07-31T08:52:51;19.90;99.90
4429;DHT22;2227;47.810;8.810;2023-07-31T08:55:18;20.10;99.90
4429;DHT22;2227;47.810;8.810;2023-07-31T08:57:52;20.10;99.90
4429;DHT22;2227;47.810;8.810;2023-07-31T09:00:21;20.00;99.90
4429;DHT22;2227;47.810;8.810;2023-07-31T09:03:02;20.10;99.90
4429;DHT22;2227;47.810;8.810;2023-07-31T09:05:31;20.20;99.90
4429;DHT22;2227;47.810;8.810;2023-07-31T09:07:58;20.40;99.90
4429;DHT22;2227;47.810;8.810;2023-07-31T09:10:25;20.40;99.90
4429;DHT22;2227;47.810;8.810;2023-07-31T09:12:52;20.20;99.90
4429;DHT22;2227;47.810;8.810;2023-07-31T09:15:19;20.30;99.90
4429;DHT22;2227;47.810;8.810;2023-07-31T09:18:03;20.40;99.90
4429;DHT22;2227;47.810;8.810;2023-07-31T09:20:31;20.30;99.90
4429;DHT22;2227;47.810;8.810;2023-07-31T09:23:10;20.50;99.90
4429;DHT22;2227;47.810;8.810;2023-07-31T09:25:38;20.70;99.90
4429;DHT22;2227;47.810;8.810;2023-07-31T09:28:07;21.00;99.90
4429;DHT22;2227;47.810;8.810;2023-07-31T09:30:48;21.20;99.90
4429;DHT22;2227;47.810;8.810;2023-07-31T09:33:15;21.40;99.90
4429;DHT22;2227;47.810;8.810;2023-07-31T09:35:51;21.50;99.90
4429;DHT22;2227;47.810;8.810;2023-07-31T09:38:18;21.70;99.90
4429;DHT22;2227;47.810;8.810;2023-07-31T09:40:49;21.90;99.90
4429;DHT22;2227;47.810;8.810;2023-07-31T09:43:22;22.00;99.90
4429;DHT22;2227;47.810;8.810;2023-07-31T09:45:55;22.20;99.90
4429;DHT22;2227;47.810;8.810;2023-07-31T09:48:24;22.50;99.90
4429;DHT22;2227;47.810;8.810;2023-07-31T09:50:54;22.80;99.90
4429;DHT22;2227;47.810;8.810;2023-07-31T09:53:28;23.20;99.90
4429;DHT22;2227;47.810;8.810;2023-07-31T09:55:58;23.80;99.90
4429;DHT22;2227;47.810;8.810;2023-07-31T09:58:28;24.10;99.90
4429;DHT22;2227;47.810;8.810;2023-07-31T10:00:57;24.10;99.90
4429;DHT22;2227;47.810;8.810;2023-07-31T10:03:26;23.80;99.90
4429;DHT22;2227;47.810;8.810;2023-07-31T10:05:55;24.50;99.80
4429;DHT22;2227;47.810;8.810;2023-07-31T10:08:27;25.50;98.70
4429;DHT22;2227;47.810;8.810;2023-07-31T10:10:59;25.90;96.50
4429;DHT22;2227;47.810;8.810;2023-07-31T10:13:27;24.90;97.00
4429;DHT22;2227;47.810;8.810;2023-07-31T10:15:58;24.50;98.30
4429;DHT22;2227;47.810;8.810;2023-07-31T10:18:26;25.00;97.90
4429;DHT22;2227;47.810;8.810;2023-07-31T10:20:55;26.00;96.30
4429;DHT22;2227;47.810;8.810;2023-07-31T10:23:23;26.70;94.70
4429;DHT22;2227;47.810;8.810;2023-07-31T10:25:53;26.80;93.00
4429;DHT22;2227;47.810;8.810;2023-07-31T10:28:21;26.60;93.80
4429;DHT22;2227;47.810;8.810;2023-07-31T10:30:48;26.80;92.90
4429;DHT22;2227;47.810;8.810;2023-07-31T10:33:16;27.50;91.70
4429;DHT22;2227;47.810;8.810;2023-07-31T10:35:43;27.90;90.50
4429;DHT22;2227;47.810;8.810;2023-07-31T10:38:11;27.60;89.80
4429;DHT22;2227;47.810;8.810;2023-07-31T10:40:38;26.90;90.70
4429;DHT22;2227;47.810;8.810;2023-07-31T10:43:05;26.90;90.40
4429;DHT22;2227;47.810;8.810;2023-07-31T10:45:39;26.80;90.30
4429;DHT22;2227;47.810;8.810;2023-07-31T10:48:15;27.10;90.50
4429;DHT22;2227;47.810;8.810;2023-07-31T10:50:55;28.10;86.50
4429;DHT22;2227;47.810;8.810;2023-07-31T10:53:26;27.10;86.90
4429;DHT22;2227;47.810;8.810;2023-07-31T10:55:53;27.30;86.30
4429;DHT22;2227;47.810;8.810;2023-07-31T10:58:24;27.80;83.90
4429;DHT22;2227;47.810;8.810;2023-07-31T11:00:55;28.40;83.20
4429;DHT22;2227;47.810;8.810;2023-07-31T11:03:47;28.80;79.10
4429;DHT22;2227;47.810;8.810;2023-07-31T11:06:13;29.00;78.30
4429;DHT22;2227;47.810;8.810;2023-07-31T11:08:49;28.40;79.60
4429;DHT22;2227;47.810;8.810;2023-07-31T11:11:17;28.50;80.30
4429;DHT22;2227;47.810;8.810;2023-07-31T11:13:47;28.50;78.40
4429;DHT22;2227;47.810;8.810;2023-07-31T11:16:25;28.40;80.30
4429;DHT22;2227;47.810;8.810;2023-07-31T11:18:53;28.50;79.60
4429;DHT22;2227;47.810;8.810;2023-07-31T11:21:24;27.90;78.80
4429;DHT22;2227;47.810;8.810;2023-07-31T11:23:52;27.90;80.00
4429;DHT22;2227;47.810;8.810;2023-07-31T11:26:20;27.80;79.50
4429;DHT22;2227;47.810;8.810;2023-07-31T11:28:47;28.10;80.60
4429;DHT22;2227;47.810;8.810;2023-07-31T11:31:14;28.60;79.00
4429;DHT22;2227;47.810;8.810;2023-07-31T11:33:41;28.50;79.00
4429;DHT22;2227;47.810;8.810;2023-07-31T11:36:15;29.00;78.50
4429;DHT22;2227;47.810;8.810;2023-07-31T11:38:42;29.10;78.00
4429;DHT22;2227;47.810;8.810;2023-07-31T11:41:09;29.50;78.80
4429;DHT22;2227;47.810;8.810;2023-07-31T11:43:36;29.80;76.70
4429;DHT22;2227;47.810;8.810;2023-07-31T11:46:03;29.80;76.50
4429;DHT22;2227;47.810;8.810;2023-07-31T11:48:31;29.30;77.40
4429;DHT22;2227;47.810;8.810;2023-07-31T11:51:02;29.00;78.00
4429;DHT22;2227;47.810;8.810;2023-07-31T11:53:38;28.50;78.00
4429;DHT22;2227;47.810;8.810;2023-07-31T11:56:08;28.00;79.20
4429;DHT22;2227;47.810;8.810;2023-07-31T11:58:37;27.30;78.00
4429;DHT22;2227;47.810;8.810;2023-07-31T12:01:05;27.10;80.40
4429;DHT22;2227;47.810;8.810;2023-07-31T12:03:32;27.10;80.50
4429;DHT22;2227;47.810;8.810;2023-07-31T12:06:00;27.30;80.40
4429;DHT22;2227;47.810;8.810;2023-07-31T12:08:26;27.20;80.90
4429;DHT22;2227;47.810;8.810;2023-07-31T12:10:54;27.30;79.10
4429;DHT22;2227;47.810;8.810;2023-07-31T12:13:25;27.40;81.00
4429;DHT22;2227;47.810;8.810;2023-07-31T12:15:57;27.60;80.50
4429;DHT22;2227;47.810;8.810;2023-07-31T12:18:27;27.50;79.70
4429;DHT22;2227;47.810;8.810;2023-07-31T12:20:58;27.80;79.90
4429;DHT22;2227;47.810;8.810;2023-07-31T12:23:29;27.90;79.10
4429;DHT22;2227;47.810;8.810;2023-07-31T12:28:29;28.00;79.60
4429;DHT22;2227;47.810;8.810;2023-07-31T12:31:00;28.20;79.50
4429;DHT22;2227;47.810;8.810;2023-07-31T12:33:35;28.60;79.20
4429;DHT22;2227;47.810;8.810;2023-07-31T12:36:04;28.30;78.00
4429;DHT22;2227;47.810;8.810;2023-07-31T12:38:31;28.30;78.70
4429;DHT22;2227;47.810;8.810;2023-07-31T12:40:58;27.60;79.90
4429;DHT22;2227;47.810;8.810;2023-07-31T12:43:24;27.00;80.60
4429;DHT22;2227;47.810;8.810;2023-07-31T12:45:51;26.20;83.60
4429;DHT22;2227;47.810;8.810;2023-07-31T12:48:18;26.20;84.80
4429;DHT22;2227;47.810;8.810;2023-07-31T12:50:45;26.50;84.10
4429;DHT22;2227;47.810;8.810;2023-07-31T12:53:11;26.50;83.90
4429;DHT22;2227;47.810;8.810;2023-07-31T12:55:38;26.60;85.10
4429;DHT22;2227;47.810;8.810;2023-07-31T12:58:05;26.60;83.30
4429;DHT22;2227;47.810;8.810;2023-07-31T13:00:31;26.40;85.00
4429;DHT22;2227;47.810;8.810;2023-07-31T13:02:59;26.20;86.50
4429;DHT22;2227;47.810;8.810;2023-07-31T13:05:27;26.00;85.00
4429;DHT22;2227;47.810;8.810;2023-07-31T13:07:54;25.70;86.50
4429;DHT22;2227;47.810;8.810;2023-07-31T13:10:22;25.90;86.50
4429;DHT22;2227;47.810;8.810;2023-07-31T13:12:49;26.00;86.00
4429;DHT22;2227;47.810;8.810;2023-07-31T13:15:16;26.20;85.70
4429;DHT22;2227;47.810;8.810;2023-07-31T13:17:43;26.30;86.00
4429;DHT22;2227;47.810;8.810;2023-07-31T13:20:10;26.30;84.80
4429;DHT22;2227;47.810;8.810;2023-07-31T13:22:37;26.40;85.80
4429;DHT22;2227;47.810;8.810;2023-07-31T13:25:04;26.50;84.80
4429;DHT22;2227;47.810;8.810;2023-07-31T13:27:31;26.40;85.80
4429;DHT22;2227;47.810;8.810;2023-07-31T13:29:58;26.20;85.20
4429;DHT22;2227;47.810;8.810;2023-07-31T13:32:25;26.00;85.20
4429;DHT22;2227;47.810;8.810;2023-07-31T13:34:52;26.00;85.70
4429;DHT22;2227;47.810;8.810;2023-07-31T13:37:19;26.00;85.80
4429;DHT22;2227;47.810;8.810;2023-07-31T13:39:45;25.90;86.60
4429;DHT22;2227;47.810;8.810;2023-07-31T13:42:12;25.80;86.60
4429;DHT22;2227;47.810;8.810;2023-07-31T13:44:39;25.90;87.10
4429;DHT22;2227;47.810;8.810;2023-07-31T13:47:07;25.90;86.80
4429;DHT22;2227;47.810;8.810;2023-07-31T13:49:35;25.90;86.90
4429;DHT22;2227;47.810;8.810;2023-07-31T13:52:03;26.00;86.00
4429;DHT22;2227;47.810;8.810;2023-07-31T13:54:31;26.20;85.80
4429;DHT22;2227;47.810;8.810;2023-07-31T13:56:57;26.50;85.10
4429;DHT22;2227;47.810;8.810;2023-07-31T13:59:24;26.20;85.70
4429;DHT22;2227;47.810;8.810;2023-07-31T14:01:51;26.20;85.50
4429;DHT22;2227;47.810;8.810;2023-07-31T14:04:17;26.20;86.20
4429;DHT22;2227;47.810;8.810;2023-07-31T14:06:44;26.10;85.00
4429;DHT22;2227;47.810;8.810;2023-07-31T14:09:11;25.90;85.30
4429;DHT22;2227;47.810;8.810;2023-07-31T14:11:37;25.60;86.80
4429;DHT22;2227;47.810;8.810;2023-07-31T14:14:09;25.20;87.30
4429;DHT22;2227;47.810;8.810;2023-07-31T14:16:36;25.40;87.80
4429;DHT22;2227;47.810;8.810;2023-07-31T14:19:03;25.70;87.60
4429;DHT22;2227;47.810;8.810;2023-07-31T14:21:30;26.00;87.20
4429;DHT22;2227;47.810;8.810;2023-07-31T14:23:57;26.20;85.50
4429;DHT22;2227;47.810;8.810;2023-07-31T14:26:23;26.10;85.10
4429;DHT22;2227;47.810;8.810;2023-07-31T14:28:50;26.20;86.20
4429;DHT22;2227;47.810;8.810;2023-07-31T14:31:17;26.20;85.80
4429;DHT22;2227;47.810;8.810;2023-07-31T14:33:44;25.90;85.10
4429;DHT22;2227;47.810;8.810;2023-07-31T14:36:10;25.80;85.90
4429;DHT22;2227;47.810;8.810;2023-07-31T14:38:37;25.70;85.60
4429;DHT22;2227;47.810;8.810;2023-07-31T14:41:04;25.40;86.00
4429;DHT22;2227;47.810;8.810;2023-07-31T14:43:31;25.30;87.10
4429;DHT22;2227;47.810;8.810;2023-07-31T14:45:57;25.20;87.90
4429;DHT22;2227;47.810;8.810;2023-07-31T14:48:26;25.10;88.00
4429;DHT22;2227;47.810;8.810;2023-07-31T14:50:53;25.20;88.30
4429;DHT22;2227;47.810;8.810;2023-07-31T14:53:21;25.40;88.50
4429;DHT22;2227;47.810;8.810;2023-07-31T14:55:48;25.50;88.40
4429;DHT22;2227;47.810;8.810;2023-07-31T14:58:14;25.60;88.30
4429;DHT22;2227;47.810;8.810;2023-07-31T15:00:44;25.50;88.10
4429;DHT22;2227;47.810;8.810;2023-07-31T15:03:10;25.20;88.70
4429;DHT22;2227;47.810;8.810;2023-07-31T15:05:37;25.10;89.50
4429;DHT22;2227;47.810;8.810;2023-07-31T15:08:04;25.20;89.60
4429;DHT22;2227;47.810;8.810;2023-07-31T15:10:31;25.20;89.70
4429;DHT22;2227;47.810;8.810;2023-07-31T15:12:58;25.20;89.40
4429;DHT22;2227;47.810;8.810;2023-07-31T15:15:25;25.10;88.70
4429;DHT22;2227;47.810;8.810;2023-07-31T15:17:52;25.00;89.70
4429;DHT22;2227;47.810;8.810;2023-07-31T15:20:19;24.90;89.90
4429;DHT22;2227;47.810;8.810;2023-07-31T15:22:46;24.90;90.20
4429;DHT22;2227;47.810;8.810;2023-07-31T15:25:13;24.80;90.20
4429;DHT22;2227;47.810;8.810;2023-07-31T15:27:40;24.90;90.70
4429;DHT22;2227;47.810;8.810;2023-07-31T15:30:07;25.00;90.40
4429;DHT22;2227;47.810;8.810;2023-07-31T15:32:34;24.90;90.20
4429;DHT22;2227;47.810;8.810;2023-07-31T15:35:01;25.00;90.60
4429;DHT22;2227;47.810;8.810;2023-07-31T15:37:27;25.10;90.30
4429;DHT22;2227;47.810;8.810;2023-07-31T15:39:54;25.10;90.10
4429;DHT22;2227;47.810;8.810;2023-07-31T15:42:21;25.00;90.60
4429;DHT22;2227;47.810;8.810;2023-07-31T15:44:47;25.10;90.80
4429;DHT22;2227;47.810;8.810;2023-07-31T15:47:14;25.10;90.10
4429;DHT22;2227;47.810;8.810;2023-07-31T15:49:41;25.10;90.40
4429;DHT22;2227;47.810;8.810;2023-07-31T15:52:08;24.90;90.90
4429;DHT22;2227;47.810;8.810;2023-07-31T15:54:34;24.90;91.00
4429;DHT22;2227;47.810;8.810;2023-07-31T15:57:01;24.90;91.10
4429;DHT22;2227;47.810;8.810;2023-07-31T15:59:28;25.20;91.20
4429;DHT22;2227;47.810;8.810;2023-07-31T16:01:54;25.30;90.90
4429;DHT22;2227;47.810;8.810;2023-07-31T16:04:21;25.30;91.40
4429;DHT22;2227;47.810;8.810;2023-07-31T16:06:48;25.00;91.50
4429;DHT22;2227;47.810;8.810;2023-07-31T16:09:14;24.80;91.80
4429;DHT22;2227;47.810;8.810;2023-07-31T16:11:41;24.70;92.00
4429;DHT22;2227;47.810;8.810;2023-07-31T16:14:09;24.60;91.60
4429;DHT22;2227;47.810;8.810;2023-07-31T16:16:35;24.60;92.10
4429;DHT22;2227;47.810;8.810;2023-07-31T16:19:02;24.30;91.90
4429;DHT22;2227;47.810;8.810;2023-07-31T16:21:30;24.30;92.50
4429;DHT22;2227;47.810;8.810;2023-07-31T16:23:56;24.20;93.00
4429;DHT22;2227;47.810;8.810;2023-07-31T16:26:23;24.40;93.00
4429;DHT22;2227;47.810;8.810;2023-07-31T16:28:50;24.30;92.80
4429;DHT22;2227;47.810;8.810;2023-07-31T16:31:16;24.30;92.80
4429;DHT22;2227;47.810;8.810;2023-07-31T16:33:43;24.20;93.30
4429;DHT22;2227;47.810;8.810;2023-07-31T16:36:10;24.10;93.50
4429;DHT22;2227;47.810;8.810;2023-07-31T16:38:37;24.10;93.40
4429;DHT22;2227;47.810;8.810;2023-07-31T16:41:03;24.10;93.90
4429;DHT22;2227;47.810;8.810;2023-07-31T16:43:31;24.10;93.70
4429;DHT22;2227;47.810;8.810;2023-07-31T16:45:58;24.00;94.00
4429;DHT22;2227;47.810;8.810;2023-07-31T16:48:24;23.90;94.30
4429;DHT22;2227;47.810;8.810;2023-07-31T16:50:52;23.80;94.50
4429;DHT22;2227;47.810;8.810;2023-07-31T16:53:19;23.70;94.70
4429;DHT22;2227;47.810;8.810;2023-07-31T16:55:46;23.70;95.00
4429;DHT22;2227;47.810;8.810;2023-07-31T16:58:12;23.80;94.90
4429;DHT22;2227;47.810;8.810;2023-07-31T17:00:39;23.80;95.00
4429;DHT22;2227;47.810;8.810;2023-07-31T17:03:06;23.80;94.90
4429;DHT22;2227;47.810;8.810;2023-07-31T17:05:33;23.70;95.20
4429;DHT22;2227;47.810;8.810;2023-07-31T17:08:00;23.70;95.40
4429;DHT22;2227;47.810;8.810;2023-07-31T17:10:27;23.70;95.70
4429;DHT22;2227;47.810;8.810;2023-07-31T17:12:53;23.60;95.50
4429;DHT22;2227;47.810;8.810;2023-07-31T17:15:20;23.50;95.60
4429;DHT22;2227;47.810;8.810;2023-07-31T17:17:51;23.70;95.80
4429;DHT22;2227;47.810;8.810;2023-07-31T17:20:19;23.80;95.40
4429;DHT22;2227;47.810;8.810;2023-07-31T17:22:46;24.00;95.50
4429;DHT22;2227;47.810;8.810;2023-07-31T17:25:17;24.00;95.50
4429;DHT22;2227;47.810;8.810;2023-07-31T17:27:45;24.20;95.30
4429;DHT22;2227;47.810;8.810;2023-07-31T17:30:11;24.10;94.70
4429;DHT22;2227;47.810;8.810;2023-07-31T17:32:38;24.00;95.40
4429;DHT22;2227;47.810;8.810;2023-07-31T17:35:05;23.90;95.50
4429;DHT22;2227;47.810;8.810;2023-07-31T17:37:32;23.80;95.60
4429;DHT22;2227;47.810;8.810;2023-07-31T17:39:59;23.90;95.70
4429;DHT22;2227;47.810;8.810;2023-07-31T17:42:26;24.00;95.60
4429;DHT22;2227;47.810;8.810;2023-07-31T17:44:52;24.00;95.70
4429;DHT22;2227;47.810;8.810;2023-07-31T17:47:19;23.80;95.70
4429;DHT22;2227;47.810;8.810;2023-07-31T17:49:46;23.80;95.90
4429;DHT22;2227;47.810;8.810;2023-07-31T17:52:14;23.80;95.90
4429;DHT22;2227;47.810;8.810;2023-07-31T17:54:40;23.90;96.20
4429;DHT22;2227;47.810;8.810;2023-07-31T17:57:07;23.80;96.30
4429;DHT22;2227;47.810;8.810;2023-07-31T17:59:34;23.80;96.20
4429;DHT22;2227;47.810;8.810;2023-07-31T18:02:01;23.80;95.90
4429;DHT22;2227;47.810;8.810;2023-07-31T18:04:27;23.90;96.00
4429;DHT22;2227;47.810;8.810;2023-07-31T18:06:54;23.90;95.70
4429;DHT22;2227;47.810;8.810;2023-07-31T18:09:21;23.90;95.90
4429;DHT22;2227;47.810;8.810;2023-07-31T18:11:47;23.90;96.00
4429;DHT22;2227;47.810;8.810;2023-07-31T18:14:14;23.80;96.10
4429;DHT22;2227;47.810;8.810;2023-07-31T18:16:41;23.60;96.10
4429;DHT22;2227;47.810;8.810;2023-07-31T18:19:08;23.60;96.30
4429;DHT22;2227;47.810;8.810;2023-07-31T18:21:35;23.50;96.60
4429;DHT22;2227;47.810;8.810;2023-07-31T18:24:03;23.50;96.70
4429;DHT22;2227;47.810;8.810;2023-07-31T18:26:30;23.50;96.70
4429;DHT22;2227;47.810;8.810;2023-07-31T18:28:57;23.50;96.70
4429;DHT22;2227;47.810;8.810;2023-07-31T18:31:23;23.50;96.20
4429;DHT22;2227;47.810;8.810;2023-07-31T18:33:50;23.40;96.30
4429;DHT22;2227;47.810;8.810;2023-07-31T18:36:17;23.40;96.60
4429;DHT22;2227;47.810;8.810;2023-07-31T18:38:44;23.30;96.80
4429;DHT22;2227;47.810;8.810;2023-07-31T18:41:10;23.10;97.50
4429;DHT22;2227;47.810;8.810;2023-07-31T18:43:38;23.10;97.40
4429;DHT22;2227;47.810;8.810;2023-07-31T18:46:05;23.10;97.60
4429;DHT22;2227;47.810;8.810;2023-07-31T18:48:32;23.10;96.90
4429;DHT22;2227;47.810;8.810;2023-07-31T18:50:58;23.10;98.10
4429;DHT22;2227;47.810;8.810;2023-07-31T18:53:25;23.00;97.90
4429;DHT22;2227;47.810;8.810;2023-07-31T18:55:52;22.90;98.10
4429;DHT22;2227;47.810;8.810;2023-07-31T18:58:19;22.90;98.30
4429;DHT22;2227;47.810;8.810;2023-07-31T19:00:45;22.90;98.40
4429;DHT22;2227;47.810;8.810;2023-07-31T19:03:12;22.80;99.00
4429;DHT22;2227;47.810;8.810;2023-07-31T19:05:39;22.80;99.30
4429;DHT22;2227;47.810;8.810;2023-07-31T19:08:06;22.70;99.60
4429;DHT22;2227;47.810;8.810;2023-07-31T19:10:34;22.70;99.80
4429;DHT22;2227;47.810;8.810;2023-07-31T19:13:02;22.70;99.90
4429;DHT22;2227;47.810;8.810;2023-07-31T19:15:28;22.60;99.90
4429;DHT22;2227;47.810;8.810;2023-07-31T19:17:55;22.60;99.90
4429;DHT22;2227;47.810;8.810;2023-07-31T19:20:22;22.50;99.90
4429;DHT22;2227;47.810;8.810;2023-07-31T19:22:48;22.40;99.90
4429;DHT22;2227;47.810;8.810;2023-07-31T19:25:15;22.40;99.90
4429;DHT22;2227;47.810;8.810;2023-07-31T19:27:42;22.40;99.90
4429;DHT22;2227;47.810;8.810;2023-07-31T19:30:11;22.30;99.90
4429;DHT22;2227;47.810;8.810;2023-07-31T19:32:38;22.10;99.90
4429;DHT22;2227;47.810;8.810;2023-07-31T19:35:05;22.10;99.90
4429;DHT22;2227;47.810;8.810;2023-07-31T19:37:31;22.00;99.90
4429;DHT22;2227;47.810;8.810;2023-07-31T19:39:58;21.90;99.90
4429;DHT22;2227;47.810;8.810;2023-07-31T19:42:25;22.00;99.90
4429;DHT22;2227;47.810;8.810;2023-07-31T19:44:52;22.00;99.90
4429;DHT22;2227;47.810;8.810;2023-07-31T19:47:18;21.90;99.90
4429;DHT22;2227;47.810;8.810;2023-07-31T19:49:45;21.90;99.90
4429;DHT22;2227;47.810;8.810;2023-07-31T19:52:12;21.80;99.90
4429;DHT22;2227;47.810;8.810;2023-07-31T19:54:39;21.70;99.90
4429;DHT22;2227;47.810;8.810;2023-07-31T19:57:06;21.60;99.90